createdAt,value
2019-04-14T00:01:19.399Z,20.50
2019-04-14T00:03:50.070Z,20.49
2019-04-14T00:06:20.218Z,20.48
2019-04-14T00:08:50.062Z,20.48
2019-04-14T00:11:19.095Z,20.46
2019-04-14T00:13:47.940Z,20.47
2019-04-14T00:16:16.440Z,20.47
2019-04-14T00:18:45.072Z,20.46
2019-04-14T00:21:13.548Z,20.47
2019-04-14T00:23:42.037Z,20.45
2019-04-14T00:26:29.349Z,20.45
2019-04-14T00:28:58.420Z,20.44
2019-04-14T00:31:28.551Z,20.44
2019-04-14T00:33:58.804Z,20.43
2019-04-14T00:36:41.615Z,20.45
2019-04-14T00:39:21.083Z,20.45
2019-04-14T00:42:08.266Z,20.44
2019-04-14T00:44:45.233Z,20.43
2019-04-14T00:47:31.571Z,20.43
2019-04-14T00:50:00.051Z,20.43
2019-04-14T00:52:29.698Z,20.42
2019-04-14T00:54:58.725Z,20.41
2019-04-14T00:57:27.247Z,20.41
2019-04-14T00:59:55.710Z,20.40
2019-04-14T01:02:25.120Z,20.40
2019-04-14T01:04:53.760Z,20.40
2019-04-14T01:07:22.193Z,20.40
2019-04-14T01:09:51.028Z,20.41
2019-04-14T01:12:19.628Z,20.41
2019-04-14T01:14:48.061Z,20.39
2019-04-14T01:17:17.627Z,20.37
2019-04-14T01:19:46.254Z,20.38
2019-04-14T01:22:14.691Z,20.38
2019-04-14T01:24:43.093Z,20.38
2019-04-14T01:27:12.485Z,20.36
2019-04-14T01:29:40.941Z,20.36
2019-04-14T01:32:09.357Z,20.35
2019-04-14T01:34:39.053Z,20.35
2019-04-14T01:37:07.600Z,20.35
2019-04-14T01:39:37.090Z,20.36
2019-04-14T01:42:07.008Z,20.34
2019-04-14T01:44:35.504Z,20.33
2019-04-14T01:47:05.161Z,20.34
2019-04-14T01:49:33.735Z,20.33
2019-04-14T01:52:06.766Z,20.32
2019-04-14T01:54:36.872Z,20.32
2019-04-14T01:57:11.021Z,20.32
2019-04-14T01:59:39.724Z,20.31
2019-04-14T02:02:09.765Z,20.32
2019-04-14T02:04:38.206Z,20.33
2019-04-14T02:07:08.039Z,20.32
2019-04-14T02:09:37.828Z,20.30
2019-04-14T02:12:06.354Z,20.29
2019-04-14T02:14:34.772Z,20.29
2019-04-14T02:17:04.928Z,20.30
2019-04-14T02:19:33.440Z,20.29
2019-04-14T02:22:02.730Z,20.29
2019-04-14T02:24:32.982Z,20.28
2019-04-14T02:27:01.416Z,20.29
2019-04-14T02:29:29.885Z,20.27
2019-04-14T02:32:25.830Z,20.27
2019-04-14T02:35:16.622Z,20.27
2019-04-14T02:40:13.695Z,20.27
2019-04-14T02:42:34.263Z,20.25
2019-04-14T02:45:00.671Z,20.26
2019-04-14T02:47:45.433Z,20.23
2019-04-14T02:50:01.766Z,20.23
2019-04-14T02:52:29.937Z,20.24
2019-04-14T02:57:23.107Z,20.22
2019-04-14T02:59:59.242Z,20.21
2019-04-14T03:02:30.331Z,20.21
2019-04-14T03:04:56.613Z,20.23
2019-04-14T03:09:56.249Z,20.20
2019-04-14T03:17:29.245Z,20.19
2019-04-14T03:20:22.804Z,20.19
2019-04-14T03:22:37.118Z,20.18
2019-04-14T03:25:09.802Z,20.18
2019-04-14T03:27:55.086Z,20.16
2019-04-14T03:36:06.548Z,20.13
2019-04-14T03:38:04.436Z,20.11
2019-04-14T03:40:49.191Z,20.10
2019-04-14T03:43:05.913Z,20.08
2019-04-14T03:45:36.317Z,20.08
2019-04-14T03:48:20.852Z,20.07
2019-04-14T03:50:28.905Z,20.08
2019-04-14T03:53:05.873Z,20.09
2019-04-14T03:55:15.986Z,20.07
2019-04-14T03:57:34.452Z,20.06
2019-04-14T04:00:03.303Z,20.07
2019-04-14T04:02:31.651Z,20.06
2019-04-14T04:05:00.076Z,20.06
2019-04-14T04:07:28.512Z,20.04
2019-04-14T04:09:58.584Z,20.02
2019-04-14T04:12:27.207Z,20.01
2019-04-14T04:14:55.798Z,19.99
2019-04-14T04:17:36.206Z,19.98
2019-04-14T04:20:24.229Z,20.00
2019-04-14T04:23:03.532Z,20.01
2019-04-14T04:25:36.441Z,20.00
2019-04-14T04:28:23.106Z,19.99
2019-04-14T04:30:53.695Z,19.98
2019-04-14T04:33:26.814Z,19.95
2019-04-14T04:36:03.243Z,19.93
2019-04-14T04:38:33.518Z,19.92
2019-04-14T04:41:01.960Z,19.92
2019-04-14T04:43:30.417Z,19.94
2019-04-14T04:45:58.821Z,19.95
2019-04-14T04:48:28.460Z,19.95
2019-04-14T04:50:57.016Z,19.96
2019-04-14T04:53:26.584Z,19.97
2019-04-14T04:55:55.246Z,19.98
2019-04-14T04:58:24.125Z,19.98
2019-04-14T05:00:54.228Z,19.98
2019-04-14T05:03:23.357Z,19.98
2019-04-14T05:06:28.796Z,19.99
2019-04-14T05:09:08.002Z,20.00
2019-04-14T05:11:55.438Z,20.00
2019-04-14T05:14:32.644Z,20.00
2019-04-14T05:17:01.452Z,19.99
2019-04-14T05:19:33.640Z,19.99
2019-04-14T05:22:00.635Z,19.98
2019-04-14T05:24:29.136Z,19.97
2019-04-14T05:26:57.527Z,19.99
2019-04-14T05:29:25.976Z,19.99
2019-04-14T05:31:55.432Z,20.00
2019-04-14T05:34:24.025Z,20.01
2019-04-14T05:36:52.422Z,20.01
2019-04-14T05:39:22.003Z,20.02
2019-04-14T05:42:00.499Z,20.02
2019-04-14T05:44:20.837Z,20.03
2019-04-14T05:46:49.333Z,20.06
2019-04-14T05:49:28.615Z,20.07
2019-04-14T05:51:48.160Z,20.07
2019-04-14T05:54:16.597Z,20.08
2019-04-14T05:56:45.039Z,20.09
2019-04-14T05:59:13.534Z,20.12
2019-04-14T06:01:42.133Z,20.13
2019-04-14T06:04:11.402Z,20.14
2019-04-14T06:06:39.921Z,20.16
2019-04-14T06:09:08.778Z,20.17
2019-04-14T06:11:37.217Z,20.19
2019-04-14T06:14:06.139Z,20.17
2019-04-14T06:16:34.549Z,20.18
2019-04-14T06:19:02.964Z,20.17
2019-04-14T06:21:31.407Z,20.19
2019-04-14T06:24:00.273Z,20.21
2019-04-14T06:26:28.743Z,20.22
2019-04-14T06:28:57.119Z,20.24
2019-04-14T06:31:43.381Z,20.26
2019-04-14T06:34:29.931Z,20.25
2019-04-14T06:37:00.011Z,20.26
2019-04-14T06:39:30.073Z,20.27
2019-04-14T06:41:58.487Z,20.27
2019-04-14T06:44:26.927Z,20.27
2019-04-14T06:46:55.353Z,20.27
2019-04-14T06:49:23.836Z,20.26
2019-04-14T06:51:52.269Z,20.27
2019-04-14T06:54:20.811Z,20.27
2019-04-14T06:56:49.244Z,20.28
2019-04-14T06:59:17.650Z,20.28
2019-04-14T07:01:46.080Z,20.29
2019-04-14T07:04:14.480Z,20.31
2019-04-14T07:06:42.971Z,20.33
2019-04-14T07:09:11.357Z,20.34
2019-04-14T07:11:39.806Z,20.35
2019-04-14T07:14:08.214Z,20.36
2019-04-14T07:16:36.641Z,20.34
2019-04-14T07:19:05.063Z,20.33
2019-04-14T07:21:33.496Z,20.37
2019-04-14T07:24:01.905Z,20.40
2019-04-14T07:26:30.335Z,20.44
2019-04-14T07:28:58.765Z,20.50
2019-04-14T07:31:28.843Z,20.60
2019-04-14T07:33:58.923Z,20.67
2019-04-14T07:36:45.537Z,20.73
2019-04-14T07:39:31.861Z,20.81
2019-04-14T07:42:07.909Z,20.87
2019-04-14T07:44:37.953Z,20.94
2019-04-14T07:47:13.979Z,20.98
2019-04-14T07:49:44.037Z,21.00
2019-04-14T07:52:23.123Z,21.03
2019-04-14T07:54:53.215Z,21.04
2019-04-14T07:57:31.742Z,21.04
2019-04-14T08:00:19.847Z,21.03
2019-04-14T08:02:52.627Z,21.03
2019-04-14T08:05:22.700Z,21.04
2019-04-14T08:07:51.177Z,21.05
2019-04-14T08:10:19.607Z,21.07
2019-04-14T08:12:48.056Z,21.09
2019-04-14T08:15:16.570Z,21.09
2019-04-14T08:17:44.983Z,21.10
2019-04-14T08:20:13.562Z,21.15
2019-04-14T08:22:41.973Z,21.23
2019-04-14T08:25:10.451Z,21.34
2019-04-14T08:27:38.985Z,21.46
2019-04-14T08:30:08.536Z,21.63
2019-04-14T08:32:36.975Z,21.84
2019-04-14T08:35:06.751Z,22.06
2019-04-14T08:37:35.291Z,22.22
2019-04-14T08:40:04.340Z,22.35
2019-04-14T08:42:49.392Z,22.39
2019-04-14T08:45:28.321Z,22.39
2019-04-14T08:48:16.551Z,22.33
2019-04-14T08:50:46.545Z,22.35
2019-04-14T08:53:22.273Z,22.44
2019-04-14T08:55:52.327Z,22.54
2019-04-14T08:58:37.452Z,22.61
2019-04-14T09:01:07.518Z,22.68
2019-04-14T09:03:49.635Z,22.76
2019-04-14T09:06:19.902Z,22.87
2019-04-14T09:08:49.989Z,22.92
2019-04-14T09:11:36.141Z,22.96
2019-04-14T09:14:04.650Z,22.99
2019-04-14T09:16:33.092Z,23.05
2019-04-14T09:19:07.610Z,23.09
2019-04-14T09:21:31.673Z,23.07
2019-04-14T09:24:00.093Z,23.09
2019-04-14T09:26:28.534Z,23.25
2019-04-14T09:28:56.979Z,23.36
2019-04-14T09:31:25.415Z,23.42
2019-04-14T09:33:53.928Z,23.43
2019-04-14T09:36:22.366Z,23.45
2019-04-14T09:38:50.794Z,23.45
2019-04-14T09:41:19.229Z,23.44
2019-04-14T09:43:47.656Z,23.34
2019-04-14T09:46:16.121Z,23.30
2019-04-14T09:48:44.530Z,23.28
2019-04-14T09:51:12.997Z,23.31
2019-04-14T09:53:41.444Z,23.46
2019-04-14T09:56:09.878Z,23.62
2019-04-14T09:58:38.391Z,23.76
2019-04-14T10:01:09.053Z,23.91
2019-04-14T10:03:36.952Z,23.99
2019-04-14T10:06:05.373Z,24.02
2019-04-14T10:08:33.806Z,24.00
2019-04-14T10:11:02.227Z,23.93
2019-04-14T10:13:30.668Z,23.86
2019-04-14T10:15:59.078Z,23.73
2019-04-14T10:18:27.506Z,23.71
2019-04-14T10:20:55.972Z,23.76
2019-04-14T10:23:24.401Z,23.83
2019-04-14T10:25:52.822Z,23.91
2019-04-14T10:28:21.229Z,23.99
2019-04-14T10:30:49.657Z,24.09
2019-04-14T10:33:18.146Z,24.14
2019-04-14T10:35:46.668Z,24.16
2019-04-14T10:38:15.068Z,24.25
2019-04-14T10:40:43.482Z,24.39
2019-04-14T10:43:11.919Z,24.47
2019-04-14T10:45:40.333Z,24.59
2019-04-14T10:48:08.752Z,24.66
2019-04-14T10:50:37.204Z,24.77
2019-04-14T10:53:05.636Z,24.85
2019-04-14T10:55:34.086Z,24.96
2019-04-14T10:58:02.524Z,25.01
2019-04-14T11:00:30.950Z,25.08
2019-04-14T11:02:59.414Z,25.12
2019-04-14T11:05:29.466Z,25.11
2019-04-14T11:07:57.900Z,25.06
2019-04-14T11:10:26.347Z,25.15
2019-04-14T11:12:54.804Z,25.24
2019-04-14T11:15:23.234Z,25.32
2019-04-14T11:17:51.715Z,25.31
2019-04-14T11:20:20.158Z,25.33
2019-04-14T11:22:48.582Z,25.41
2019-04-14T11:25:17.042Z,25.44
2019-04-14T11:27:45.468Z,25.40
2019-04-14T11:30:15.614Z,25.41
2019-04-14T11:32:48.665Z,25.49
2019-04-14T11:35:27.496Z,25.49
2019-04-14T11:38:15.836Z,25.50
2019-04-14T11:40:45.915Z,25.56
2019-04-14T11:43:14.386Z,25.61
2019-04-14T11:45:42.822Z,25.59
2019-04-14T11:48:11.310Z,25.58
2019-04-14T11:50:39.734Z,25.57
2019-04-14T11:53:08.221Z,25.60
2019-04-14T11:55:36.727Z,25.60
2019-04-14T11:58:05.201Z,25.63
2019-04-14T12:00:53.338Z,25.61
2019-04-14T12:03:23.378Z,25.57
2019-04-14T12:06:11.755Z,25.42
2019-04-14T12:08:47.248Z,25.14
2019-04-14T12:11:15.691Z,24.92
2019-04-14T12:13:44.109Z,24.91
2019-04-14T12:16:12.589Z,24.94
2019-04-14T12:18:41.009Z,24.97
2019-04-14T12:21:09.524Z,25.03
2019-04-14T12:23:38.045Z,25.01
2019-04-14T12:26:06.465Z,24.99
2019-04-14T12:28:36.019Z,24.94
2019-04-14T12:31:06.520Z,24.95
2019-04-14T12:33:35.948Z,25.05
2019-04-14T12:36:07.741Z,25.10
2019-04-14T12:38:36.315Z,24.92
2019-04-14T12:41:06.466Z,24.70
2019-04-14T12:43:42.526Z,24.47
2019-04-14T12:46:18.539Z,24.27
2019-04-14T12:48:51.029Z,24.14
2019-04-14T12:51:32.713Z,24.06
2019-04-14T12:54:01.132Z,24.05
2019-04-14T12:56:30.016Z,24.01
2019-04-14T12:59:00.183Z,23.93
2019-04-14T13:01:30.240Z,23.82
2019-04-14T13:03:58.715Z,23.72
2019-04-14T13:06:27.153Z,23.67
2019-04-14T13:08:55.571Z,23.62
2019-04-14T13:11:24.011Z,23.53
2019-04-14T13:13:52.421Z,23.44
2019-04-14T13:16:20.851Z,23.38
2019-04-14T13:18:49.272Z,23.35
2019-04-14T13:21:17.699Z,23.30
2019-04-14T13:23:46.131Z,23.24
2019-04-14T13:26:14.575Z,23.20
2019-04-14T13:28:43.001Z,23.19
2019-04-14T13:31:11.451Z,23.16
2019-04-14T13:33:39.904Z,23.12
2019-04-14T13:36:08.346Z,23.10
2019-04-14T13:38:36.748Z,23.07
2019-04-14T13:41:05.629Z,23.04
2019-04-14T13:43:34.061Z,22.98
2019-04-14T13:46:02.489Z,22.92
2019-04-14T13:48:30.926Z,22.86
2019-04-14T13:50:59.329Z,22.82
2019-04-14T13:53:27.768Z,22.79
2019-04-14T13:55:56.191Z,22.75
2019-04-14T13:58:24.640Z,22.70
2019-04-14T14:00:53.075Z,22.65
2019-04-14T14:03:21.597Z,22.62
2019-04-14T14:05:50.027Z,22.57
2019-04-14T14:08:18.447Z,22.54
2019-04-14T14:10:46.879Z,22.53
2019-04-14T14:13:22.803Z,22.52
2019-04-14T14:18:27.599Z,22.47
2019-04-14T14:20:57.657Z,22.46
2019-04-14T14:23:46.296Z,22.44
2019-04-14T14:26:16.364Z,22.41
2019-04-14T14:28:44.785Z,22.41
2019-04-14T14:31:13.220Z,22.42
2019-04-14T14:33:41.637Z,22.43
2019-04-14T14:36:10.084Z,22.44
2019-04-14T14:38:38.487Z,22.44
2019-04-14T14:41:09.235Z,22.42
2019-04-14T14:43:37.679Z,22.42
2019-04-14T14:46:10.290Z,22.41
2019-04-14T14:48:43.128Z,22.40
2019-04-14T14:51:16.143Z,22.40
2019-04-14T14:53:44.607Z,22.39
2019-04-14T14:56:13.068Z,22.35
2019-04-14T14:58:41.485Z,22.30
2019-04-14T15:01:09.996Z,22.26
2019-04-14T15:03:38.420Z,22.23
2019-04-14T15:06:06.949Z,22.20
2019-04-14T15:08:35.344Z,22.19
2019-04-14T15:11:04.475Z,22.17
2019-04-14T15:13:32.965Z,22.22
2019-04-14T15:16:01.535Z,22.24
2019-04-14T15:18:29.957Z,22.27
2019-04-14T15:20:58.391Z,22.24
2019-04-14T15:23:26.869Z,22.23
2019-04-14T15:25:55.304Z,22.21
2019-04-14T15:28:23.808Z,22.18
2019-04-14T15:30:52.250Z,22.14
2019-04-14T15:33:20.755Z,22.10
2019-04-14T15:35:49.185Z,22.12
2019-04-14T15:38:17.627Z,22.08
2019-04-14T15:40:46.071Z,22.06
2019-04-14T15:43:14.527Z,22.05
2019-04-14T15:45:42.941Z,22.02
2019-04-14T15:48:11.433Z,21.99
2019-04-14T15:50:39.845Z,21.97
2019-04-14T15:53:08.273Z,21.95
2019-04-14T15:55:36.676Z,21.91
2019-04-14T15:58:21.607Z,21.88
2019-04-14T16:00:51.675Z,21.85
2019-04-14T16:03:21.742Z,21.83
2019-04-14T16:05:57.886Z,21.81
2019-04-14T16:08:30.934Z,21.79
2019-04-14T16:11:03.845Z,21.79
2019-04-14T16:13:33.912Z,21.78
2019-04-14T16:16:15.721Z,21.77
2019-04-14T16:18:45.800Z,21.75
2019-04-14T16:21:14.499Z,21.74
2019-04-14T16:23:50.418Z,21.70
2019-04-14T16:26:14.715Z,21.68
2019-04-14T16:28:47.572Z,21.65
2019-04-14T16:31:33.736Z,21.62
2019-04-14T16:34:12.754Z,21.58
2019-04-14T16:36:42.893Z,21.56
2019-04-14T16:39:11.492Z,21.53
2019-04-14T16:41:39.978Z,21.51
2019-04-14T16:44:08.430Z,21.48
2019-04-14T16:46:36.865Z,21.47
2019-04-14T16:49:06.162Z,21.45
2019-04-14T16:51:41.934Z,21.44
2019-04-14T16:54:20.840Z,21.41
2019-04-14T16:56:50.921Z,21.39
2019-04-14T16:59:19.333Z,21.36
2019-04-14T17:01:47.819Z,21.34
2019-04-14T17:04:16.266Z,21.32
2019-04-14T17:06:44.704Z,21.29
2019-04-14T17:09:13.177Z,21.28
2019-04-14T17:11:41.614Z,21.25
2019-04-14T17:14:11.677Z,21.23
2019-04-14T17:16:41.853Z,21.19
2019-04-14T17:19:11.917Z,21.18
2019-04-14T17:21:42.061Z,21.16
2019-04-14T17:24:17.629Z,21.13
2019-04-14T17:26:47.705Z,21.12
2019-04-14T17:29:17.794Z,21.09
2019-04-14T17:31:48.385Z,21.06
2019-04-14T17:34:34.739Z,21.05
2019-04-14T17:37:22.900Z,21.03
2019-04-14T17:39:58.681Z,21.00
2019-04-14T17:42:31.435Z,20.98
2019-04-14T17:45:04.349Z,20.95
2019-04-14T17:47:40.416Z,20.94
2019-04-14T17:50:11.138Z,20.91
2019-04-14T17:52:47.152Z,20.88
2019-04-14T17:55:20.029Z,20.87
2019-04-14T17:57:55.818Z,20.83
2019-04-14T18:00:28.621Z,20.81
2019-04-14T18:03:01.669Z,20.80
2019-04-14T18:05:35.123Z,20.78
2019-04-14T18:08:07.885Z,20.76
2019-04-14T18:10:53.458Z,20.73
2019-04-14T18:13:23.639Z,20.70
2019-04-14T18:15:56.229Z,20.69
2019-04-14T18:18:29.301Z,20.67
2019-04-14T18:20:59.364Z,20.64
2019-04-14T18:23:27.840Z,20.62
2019-04-14T18:25:56.264Z,20.61
2019-04-14T18:28:29.125Z,20.60
2019-04-14T18:31:01.621Z,20.58
2019-04-14T18:33:47.677Z,20.55
2019-04-14T18:36:17.779Z,20.53
2019-04-14T18:38:56.807Z,20.53
2019-04-14T18:41:41.880Z,20.52
2019-04-14T18:44:11.975Z,20.50
2019-04-14T18:46:42.055Z,20.48
2019-04-14T18:49:12.191Z,20.46
2019-04-14T18:51:48.339Z,20.45
2019-04-14T18:54:33.392Z,20.42
2019-04-14T18:57:12.378Z,20.39
2019-04-14T18:59:57.468Z,20.37
2019-04-14T19:02:25.922Z,20.34
2019-04-14T19:04:54.328Z,20.32
2019-04-14T19:07:22.751Z,20.31
2019-04-14T19:09:51.201Z,20.29
2019-04-14T19:12:21.261Z,20.28
2019-04-14T19:14:54.006Z,20.27
2019-04-14T19:17:24.097Z,20.26
2019-04-14T19:20:01.534Z,20.27
2019-04-14T19:22:24.422Z,20.24
2019-04-14T19:24:52.870Z,20.24
2019-04-14T19:27:21.340Z,20.21
2019-04-14T19:29:49.792Z,20.21
2019-04-14T19:32:18.195Z,20.20
2019-04-14T19:34:46.641Z,20.19
2019-04-14T19:37:15.063Z,20.18
2019-04-14T19:39:43.504Z,20.18
2019-04-14T19:42:11.943Z,20.18
2019-04-14T19:44:40.384Z,20.16
2019-04-14T19:47:08.797Z,20.16
2019-04-14T19:49:37.227Z,20.15
2019-04-14T19:52:05.685Z,20.15
2019-04-14T19:54:34.134Z,20.14
2019-04-14T19:57:02.604Z,20.13
2019-04-14T19:59:31.101Z,20.13
2019-04-14T20:01:59.607Z,20.12
2019-04-14T20:04:28.023Z,20.14
2019-04-14T20:06:56.492Z,20.12
2019-04-14T20:09:25.032Z,20.12
2019-04-14T20:11:53.468Z,20.13
2019-04-14T20:14:21.905Z,20.13
2019-04-14T20:17:05.789Z,20.11
2019-04-14T20:19:35.328Z,20.11
2019-04-14T20:22:11.428Z,20.12
2019-04-14T20:24:43.974Z,20.10
2019-04-14T20:27:20.067Z,20.09
2019-04-14T20:29:53.141Z,20.09
2019-04-14T20:32:23.368Z,20.09
2019-04-14T20:34:51.787Z,20.07
2019-04-14T20:37:20.250Z,20.08
2019-04-14T20:39:48.771Z,20.07
2019-04-14T20:42:17.456Z,20.08
2019-04-14T20:44:45.881Z,20.09
2019-04-14T20:47:14.469Z,20.07
2019-04-14T20:49:42.892Z,20.07
2019-04-14T20:52:11.335Z,20.07
2019-04-14T20:54:39.805Z,20.08
2019-04-14T20:57:08.209Z,20.09
2019-04-14T20:59:36.660Z,20.08
2019-04-14T21:02:24.997Z,20.09
2019-04-14T21:04:58.043Z,20.09
2019-04-14T21:07:44.513Z,20.09
2019-04-14T21:10:14.736Z,20.09
2019-04-14T21:13:01.227Z,20.08
2019-04-14T21:15:33.999Z,20.09
2019-04-14T21:18:12.900Z,20.08
2019-04-14T21:20:58.883Z,20.07
2019-04-14T21:23:35.237Z,20.07
2019-04-14T21:26:05.386Z,20.07
2019-04-14T21:28:50.540Z,20.06
2019-04-14T21:31:26.171Z,20.05
2019-04-14T21:33:56.210Z,20.04
2019-04-14T21:36:26.359Z,20.03
2019-04-14T21:39:12.592Z,20.04
2019-04-14T21:41:42.697Z,20.03
2019-04-14T21:44:11.120Z,20.03
2019-04-14T21:46:39.556Z,20.01
2019-04-14T21:49:08.026Z,20.00
2019-04-14T21:51:53.065Z,20.00
2019-04-14T21:54:21.847Z,20.00
2019-04-14T21:56:51.928Z,19.99
2019-04-14T21:59:38.362Z,19.99
2019-04-14T22:02:25.019Z,19.98
2019-04-14T22:04:55.105Z,19.98
2019-04-14T22:07:30.741Z,19.97
2019-04-14T22:10:00.856Z,19.97
2019-04-14T22:12:30.417Z,19.97
2019-04-14T22:14:58.848Z,19.97
2019-04-14T22:17:27.270Z,19.97
2019-04-14T22:19:55.756Z,19.97
2019-04-14T22:22:24.106Z,19.96
2019-04-14T22:24:52.625Z,19.96
2019-04-14T22:27:21.154Z,19.95
2019-04-14T22:29:49.581Z,19.94
2019-04-14T22:32:18.041Z,19.94
2019-04-14T22:34:46.525Z,19.93
2019-04-14T22:37:15.051Z,19.92
2019-04-14T22:39:43.477Z,19.92
2019-04-14T22:42:11.912Z,19.91
2019-04-14T22:44:40.324Z,19.91
2019-04-14T22:47:08.727Z,19.90
2019-04-14T22:49:37.210Z,19.89
2019-04-14T22:52:05.886Z,19.88
2019-04-14T22:54:34.337Z,19.88
2019-04-14T22:57:02.831Z,19.86
2019-04-14T22:59:31.271Z,19.86
2019-04-14T23:02:06.953Z,19.85
2019-04-14T23:04:45.796Z,19.84
2019-04-14T23:07:15.855Z,19.84
2019-04-14T23:09:45.928Z,19.84
2019-04-14T23:12:27.765Z,19.83
2019-04-14T23:15:06.805Z,19.82
2019-04-14T23:17:36.899Z,19.81
2019-04-14T23:20:11.335Z,19.80
2019-04-14T23:22:41.407Z,19.80
2019-04-14T23:25:09.972Z,19.80
2019-04-14T23:27:38.438Z,19.79
2019-04-14T23:30:07.044Z,19.77
2019-04-14T23:32:35.460Z,19.75
2019-04-14T23:35:06.084Z,19.76
2019-04-14T23:37:34.479Z,19.75
2019-04-14T23:40:03.128Z,19.73
2019-04-14T23:42:31.539Z,19.74
2019-04-14T23:44:59.968Z,19.73
2019-04-14T23:47:28.445Z,19.73
2019-04-14T23:49:56.855Z,19.72
2019-04-14T23:52:25.272Z,19.70
2019-04-14T23:54:53.732Z,19.70
2019-04-14T23:57:22.153Z,19.70
2019-04-14T23:59:50.558Z,19.70
